sensor_id;sensor_type;location;lat;lon;timestamp;P1;durP1;ratioP1;P2;durP2;ratioP2
26540;SDS011;14206;50.202;10.948;2023-08-01T00:00:46;4.85;;;2.97;;
26540;SDS011;14206;50.202;10.948;2023-08-01T00:03:13;4.22;;;2.83;;
26540;SDS011;14206;50.202;10.948;2023-08-01T00:05:40;5.07;;;3.28;;
26540;SDS011;14206;50.202;10.948;2023-08-01T00:08:11;10.82;;;3.20;;
26540;SDS011;14206;50.202;10.948;2023-08-01T00:10:39;4.25;;;3.05;;
26540;SDS011;14206;50.202;10.948;2023-08-01T00:13:07;4.35;;;2.90;;
26540;SDS011;14206;50.202;10.948;2023-08-01T00:15:35;4.82;;;3.08;;
26540;SDS011;14206;50.202;10.948;2023-08-01T00:18:04;4.45;;;2.90;;
26540;SDS011;14206;50.202;10.948;2023-08-01T00:20:31;5.38;;;3.22;;
26540;SDS011;14206;50.202;10.948;2023-08-01T00:22:58;6.63;;;3.63;;
26540;SDS011;14206;50.202;10.948;2023-08-01T00:25:25;4.18;;;2.83;;
26540;SDS011;14206;50.202;10.948;2023-08-01T00:27:52;4.65;;;3.20;;
26540;SDS011;14206;50.202;10.948;2023-08-01T00:30:19;3.88;;;3.00;;
26540;SDS011;14206;50.202;10.948;2023-08-01T00:32:47;3.58;;;2.90;;
26540;SDS011;14206;50.202;10.948;2023-08-01T00:35:14;4.70;;;3.40;;
26540;SDS011;14206;50.202;10.948;2023-08-01T00:37:47;5.18;;;3.30;;
26540;SDS011;14206;50.202;10.948;2023-08-01T00:40:13;4.50;;;3.20;;
26540;SDS011;14206;50.202;10.948;2023-08-01T00:42:42;9.05;;;4.13;;
26540;SDS011;14206;50.202;10.948;2023-08-01T00:45:11;5.75;;;3.33;;
26540;SDS011;14206;50.202;10.948;2023-08-01T00:47:41;4.70;;;3.30;;
26540;SDS011;14206;50.202;10.948;2023-08-01T00:50:08;5.13;;;3.60;;
26540;SDS011;14206;50.202;10.948;2023-08-01T00:52:35;4.03;;;3.08;;
26540;SDS011;14206;50.202;10.948;2023-08-01T00:55:02;4.80;;;3.90;;
26540;SDS011;14206;50.202;10.948;2023-08-01T00:57:30;5.03;;;3.33;;
26540;SDS011;14206;50.202;10.948;2023-08-01T00:59:57;5.22;;;3.58;;
26540;SDS011;14206;50.202;10.948;2023-08-01T01:02:24;6.57;;;3.85;;
26540;SDS011;14206;50.202;10.948;2023-08-01T01:04:51;5.13;;;3.40;;
26540;SDS011;14206;50.202;10.948;2023-08-01T01:07:18;6.80;;;3.65;;
26540;SDS011;14206;50.202;10.948;2023-08-01T01:09:46;3.88;;;3.40;;
26540;SDS011;14206;50.202;10.948;2023-08-01T01:12:13;4.72;;;3.60;;
26540;SDS011;14206;50.202;10.948;2023-08-01T01:14:40;4.57;;;3.25;;
26540;SDS011;14206;50.202;10.948;2023-08-01T01:17:07;5.13;;;3.42;;
26540;SDS011;14206;50.202;10.948;2023-08-01T01:19:34;4.40;;;3.38;;
26540;SDS011;14206;50.202;10.948;2023-08-01T01:22:02;5.25;;;3.05;;
26540;SDS011;14206;50.202;10.948;2023-08-01T01:24:31;5.75;;;3.38;;
26540;SDS011;14206;50.202;10.948;2023-08-01T01:26:59;7.30;;;3.78;;
26540;SDS011;14206;50.202;10.948;2023-08-01T01:29:30;4.63;;;3.30;;
26540;SDS011;14206;50.202;10.948;2023-08-01T01:31:59;4.68;;;3.17;;
26540;SDS011;14206;50.202;10.948;2023-08-01T01:34:27;4.95;;;2.92;;
26540;SDS011;14206;50.202;10.948;2023-08-01T01:36:55;4.22;;;3.20;;
26540;SDS011;14206;50.202;10.948;2023-08-01T01:39:22;4.13;;;3.10;;
26540;SDS011;14206;50.202;10.948;2023-08-01T01:41:49;4.68;;;3.65;;
26540;SDS011;14206;50.202;10.948;2023-08-01T01:44:16;4.85;;;3.35;;
26540;SDS011;14206;50.202;10.948;2023-08-01T01:46:43;4.25;;;3.25;;
26540;SDS011;14206;50.202;10.948;2023-08-01T01:49:10;4.05;;;3.00;;
26540;SDS011;14206;50.202;10.948;2023-08-01T01:51:36;5.43;;;3.40;;
26540;SDS011;14206;50.202;10.948;2023-08-01T01:54:03;4.80;;;3.30;;
26540;SDS011;14206;50.202;10.948;2023-08-01T01:56:30;4.97;;;3.45;;
26540;SDS011;14206;50.202;10.948;2023-08-01T01:58:57;5.20;;;3.50;;
26540;SDS011;14206;50.202;10.948;2023-08-01T02:01:24;5.22;;;3.55;;
26540;SDS011;14206;50.202;10.948;2023-08-01T02:03:51;4.43;;;3.30;;
26540;SDS011;14206;50.202;10.948;2023-08-01T02:06:18;4.32;;;3.10;;
26540;SDS011;14206;50.202;10.948;2023-08-01T02:08:45;5.53;;;3.63;;
26540;SDS011;14206;50.202;10.948;2023-08-01T02:11:11;4.80;;;3.13;;
26540;SDS011;14206;50.202;10.948;2023-08-01T02:13:38;5.30;;;3.20;;
26540;SDS011;14206;50.202;10.948;2023-08-01T02:16:05;4.78;;;3.47;;
26540;SDS011;14206;50.202;10.948;2023-08-01T02:18:32;3.85;;;2.83;;
26540;SDS011;14206;50.202;10.948;2023-08-01T02:20:59;3.47;;;3.08;;
26540;SDS011;14206;50.202;10.948;2023-08-01T02:23:26;4.50;;;3.28;;
26540;SDS011;14206;50.202;10.948;2023-08-01T02:25:53;5.15;;;3.38;;
26540;SDS011;14206;50.202;10.948;2023-08-01T02:28:20;5.75;;;3.40;;
26540;SDS011;14206;50.202;10.948;2023-08-01T02:30:47;4.93;;;3.05;;
26540;SDS011;14206;50.202;10.948;2023-08-01T02:33:14;4.97;;;3.25;;
26540;SDS011;14206;50.202;10.948;2023-08-01T02:35:40;5.32;;;3.42;;
26540;SDS011;14206;50.202;10.948;2023-08-01T02:38:07;4.82;;;3.20;;
26540;SDS011;14206;50.202;10.948;2023-08-01T02:40:34;4.00;;;2.97;;
26540;SDS011;14206;50.202;10.948;2023-08-01T02:43:01;4.60;;;3.38;;
26540;SDS011;14206;50.202;10.948;2023-08-01T02:45:28;4.65;;;3.30;;
26540;SDS011;14206;50.202;10.948;2023-08-01T02:47:55;4.10;;;3.38;;
26540;SDS011;14206;50.202;10.948;2023-08-01T02:50:24;4.45;;;3.28;;
26540;SDS011;14206;50.202;10.948;2023-08-01T02:52:51;4.65;;;3.08;;
26540;SDS011;14206;50.202;10.948;2023-08-01T02:55:18;4.40;;;3.10;;
26540;SDS011;14206;50.202;10.948;2023-08-01T02:57:45;5.07;;;3.38;;
26540;SDS011;14206;50.202;10.948;2023-08-01T03:00:12;4.00;;;3.20;;
26540;SDS011;14206;50.202;10.948;2023-08-01T03:02:39;4.63;;;3.35;;
26540;SDS011;14206;50.202;10.948;2023-08-01T03:05:07;4.53;;;3.20;;
26540;SDS011;14206;50.202;10.948;2023-08-01T03:07:34;6.32;;;3.40;;
26540;SDS011;14206;50.202;10.948;2023-08-01T03:10:02;5.13;;;3.60;;
26540;SDS011;14206;50.202;10.948;2023-08-01T03:12:29;5.97;;;3.67;;
26540;SDS011;14206;50.202;10.948;2023-08-01T03:14:57;3.47;;;2.98;;
26540;SDS011;14206;50.202;10.948;2023-08-01T03:17:24;5.10;;;3.47;;
26540;SDS011;14206;50.202;10.948;2023-08-01T03:19:51;5.50;;;3.38;;
26540;SDS011;14206;50.202;10.948;2023-08-01T03:22:18;4.18;;;3.20;;
26540;SDS011;14206;50.202;10.948;2023-08-01T03:24:45;5.32;;;3.63;;
26540;SDS011;14206;50.202;10.948;2023-08-01T03:27:11;3.20;;;2.90;;
26540;SDS011;14206;50.202;10.948;2023-08-01T03:29:39;5.95;;;3.20;;
26540;SDS011;14206;50.202;10.948;2023-08-01T03:32:06;3.80;;;3.30;;
26540;SDS011;14206;50.202;10.948;2023-08-01T03:34:33;4.60;;;3.50;;
26540;SDS011;14206;50.202;10.948;2023-08-01T03:37:00;4.43;;;3.25;;
26540;SDS011;14206;50.202;10.948;2023-08-01T03:39:27;5.88;;;3.83;;
26540;SDS011;14206;50.202;10.948;2023-08-01T03:41:54;4.65;;;3.30;;
26540;SDS011;14206;50.202;10.948;2023-08-01T03:44:21;4.65;;;3.33;;
26540;SDS011;14206;50.202;10.948;2023-08-01T03:46:51;4.90;;;3.78;;
26540;SDS011;14206;50.202;10.948;2023-08-01T03:49:20;6.38;;;3.92;;
26540;SDS011;14206;50.202;10.948;2023-08-01T03:51:47;4.95;;;3.20;;
26540;SDS011;14206;50.202;10.948;2023-08-01T03:54:13;7.00;;;3.60;;
26540;SDS011;14206;50.202;10.948;2023-08-01T03:56:40;4.88;;;2.95;;
26540;SDS011;14206;50.202;10.948;2023-08-01T03:59:11;4.75;;;3.60;;
26540;SDS011;14206;50.202;10.948;2023-08-01T04:01:39;4.68;;;3.45;;
26540;SDS011;14206;50.202;10.948;2023-08-01T04:04:07;5.75;;;3.50;;
26540;SDS011;14206;50.202;10.948;2023-08-01T04:06:38;5.07;;;3.35;;
26540;SDS011;14206;50.202;10.948;2023-08-01T04:09:06;5.30;;;3.72;;
26540;SDS011;14206;50.202;10.948;2023-08-01T04:11:33;5.80;;;3.45;;
26540;SDS011;14206;50.202;10.948;2023-08-01T04:14:00;5.55;;;3.60;;
26540;SDS011;14206;50.202;10.948;2023-08-01T04:16:27;3.72;;;3.10;;
26540;SDS011;14206;50.202;10.948;2023-08-01T04:18:53;3.83;;;3.22;;
26540;SDS011;14206;50.202;10.948;2023-08-01T04:21:20;5.40;;;4.00;;
26540;SDS011;14206;50.202;10.948;2023-08-01T04:23:47;5.25;;;3.60;;
26540;SDS011;14206;50.202;10.948;2023-08-01T04:26:14;4.90;;;3.50;;
26540;SDS011;14206;50.202;10.948;2023-08-01T04:28:41;4.95;;;3.65;;
26540;SDS011;14206;50.202;10.948;2023-08-01T04:31:08;4.18;;;3.40;;
26540;SDS011;14206;50.202;10.948;2023-08-01T04:33:35;5.45;;;3.83;;
26540;SDS011;14206;50.202;10.948;2023-08-01T04:36:02;4.00;;;3.60;;
26540;SDS011;14206;50.202;10.948;2023-08-01T04:38:29;5.40;;;3.63;;
26540;SDS011;14206;50.202;10.948;2023-08-01T04:40:56;5.50;;;3.58;;
26540;SDS011;14206;50.202;10.948;2023-08-01T04:43:22;8.57;;;4.18;;
26540;SDS011;14206;50.202;10.948;2023-08-01T04:45:49;6.00;;;3.95;;
26540;SDS011;14206;50.202;10.948;2023-08-01T04:48:16;5.35;;;3.50;;
26540;SDS011;14206;50.202;10.948;2023-08-01T04:50:44;5.22;;;3.58;;
26540;SDS011;14206;50.202;10.948;2023-08-01T04:53:11;7.10;;;3.40;;
26540;SDS011;14206;50.202;10.948;2023-08-01T04:55:38;6.65;;;3.45;;
26540;SDS011;14206;50.202;10.948;2023-08-01T04:58:06;8.77;;;3.95;;
26540;SDS011;14206;50.202;10.948;2023-08-01T05:00:37;6.05;;;3.70;;
26540;SDS011;14206;50.202;10.948;2023-08-01T05:03:06;5.65;;;4.10;;
26540;SDS011;14206;50.202;10.948;2023-08-01T05:05:32;5.75;;;3.55;;
26540;SDS011;14206;50.202;10.948;2023-08-01T05:07:59;6.93;;;3.50;;
26540;SDS011;14206;50.202;10.948;2023-08-01T05:10:26;4.80;;;3.70;;
26540;SDS011;14206;50.202;10.948;2023-08-01T05:12:53;5.75;;;3.78;;
26540;SDS011;14206;50.202;10.948;2023-08-01T05:15:20;5.78;;;3.10;;
26540;SDS011;14206;50.202;10.948;2023-08-01T05:17:49;5.85;;;3.65;;
26540;SDS011;14206;50.202;10.948;2023-08-01T05:20:16;4.47;;;3.47;;
26540;SDS011;14206;50.202;10.948;2023-08-01T05:22:43;5.28;;;3.53;;
26540;SDS011;14206;50.202;10.948;2023-08-01T05:25:10;4.78;;;3.35;;
26540;SDS011;14206;50.202;10.948;2023-08-01T05:27:37;3.88;;;3.05;;
26540;SDS011;14206;50.202;10.948;2023-08-01T05:30:04;3.70;;;3.08;;
26540;SDS011;14206;50.202;10.948;2023-08-01T05:32:31;4.50;;;2.95;;
26540;SDS011;14206;50.202;10.948;2023-08-01T05:34:58;3.78;;;2.95;;
26540;SDS011;14206;50.202;10.948;2023-08-01T05:37:25;5.55;;;3.05;;
26540;SDS011;14206;50.202;10.948;2023-08-01T05:39:52;4.55;;;3.20;;
26540;SDS011;14206;50.202;10.948;2023-08-01T05:42:19;6.25;;;3.20;;
26540;SDS011;14206;50.202;10.948;2023-08-01T05:44:45;3.95;;;3.00;;
26540;SDS011;14206;50.202;10.948;2023-08-01T05:47:12;4.90;;;3.30;;
26540;SDS011;14206;50.202;10.948;2023-08-01T05:49:39;5.80;;;3.28;;
26540;SDS011;14206;50.202;10.948;2023-08-01T05:52:07;6.85;;;2.97;;
26540;SDS011;14206;50.202;10.948;2023-08-01T05:54:34;4.28;;;3.05;;
26540;SDS011;14206;50.202;10.948;2023-08-01T05:57:01;4.45;;;2.90;;
26540;SDS011;14206;50.202;10.948;2023-08-01T05:59:28;5.10;;;2.90;;
26540;SDS011;14206;50.202;10.948;2023-08-01T06:01:55;3.78;;;3.22;;
26540;SDS011;14206;50.202;10.948;2023-08-01T06:04:22;4.30;;;2.92;;
26540;SDS011;14206;50.202;10.948;2023-08-01T06:06:49;4.28;;;3.10;;
26540;SDS011;14206;50.202;10.948;2023-08-01T06:09:16;4.53;;;2.97;;
26540;SDS011;14206;50.202;10.948;2023-08-01T06:11:43;3.17;;;2.65;;
26540;SDS011;14206;50.202;10.948;2023-08-01T06:14:10;4.00;;;2.90;;
26540;SDS011;14206;50.202;10.948;2023-08-01T06:16:37;4.47;;;3.00;;
26540;SDS011;14206;50.202;10.948;2023-08-01T06:19:04;3.20;;;2.67;;
26540;SDS011;14206;50.202;10.948;2023-08-01T06:21:31;4.82;;;2.97;;
26540;SDS011;14206;50.202;10.948;2023-08-01T06:23:58;3.72;;;2.72;;
26540;SDS011;14206;50.202;10.948;2023-08-01T06:26:25;3.63;;;2.60;;
26540;SDS011;14206;50.202;10.948;2023-08-01T06:28:52;4.00;;;2.80;;
26540;SDS011;14206;50.202;10.948;2023-08-01T06:31:20;3.35;;;2.50;;
26540;SDS011;14206;50.202;10.948;2023-08-01T06:33:47;5.25;;;2.70;;
26540;SDS011;14206;50.202;10.948;2023-08-01T06:36:15;3.25;;;2.60;;
26540;SDS011;14206;50.202;10.948;2023-08-01T06:38:43;3.05;;;2.30;;
26540;SDS011;14206;50.202;10.948;2023-08-01T06:41:10;3.83;;;2.45;;
26540;SDS011;14206;50.202;10.948;2023-08-01T06:43:37;4.50;;;2.30;;
26540;SDS011;14206;50.202;10.948;2023-08-01T06:46:04;5.20;;;2.40;;
26540;SDS011;14206;50.202;10.948;2023-08-01T06:48:32;3.45;;;2.40;;
26540;SDS011;14206;50.202;10.948;2023-08-01T06:51:01;3.17;;;2.20;;
26540;SDS011;14206;50.202;10.948;2023-08-01T06:53:29;4.82;;;2.80;;
26540;SDS011;14206;50.202;10.948;2023-08-01T06:55:56;3.22;;;2.42;;
26540;SDS011;14206;50.202;10.948;2023-08-01T06:58:23;3.20;;;2.28;;
26540;SDS011;14206;50.202;10.948;2023-08-01T07:00:49;3.33;;;2.67;;
26540;SDS011;14206;50.202;10.948;2023-08-01T07:03:16;3.00;;;2.03;;
26540;SDS011;14206;50.202;10.948;2023-08-01T07:05:43;3.38;;;2.15;;
26540;SDS011;14206;50.202;10.948;2023-08-01T07:08:10;2.75;;;1.90;;
26540;SDS011;14206;50.202;10.948;2023-08-01T07:10:38;2.20;;;1.60;;
26540;SDS011;14206;50.202;10.948;2023-08-01T07:13:05;4.25;;;1.70;;
26540;SDS011;14206;50.202;10.948;2023-08-01T07:15:32;2.00;;;1.42;;
26540;SDS011;14206;50.202;10.948;2023-08-01T07:17:59;2.45;;;1.60;;
26540;SDS011;14206;50.202;10.948;2023-08-01T07:20:27;2.03;;;1.38;;
26540;SDS011;14206;50.202;10.948;2023-08-01T07:22:54;1.85;;;1.58;;
26540;SDS011;14206;50.202;10.948;2023-08-01T07:25:20;2.17;;;1.33;;
26540;SDS011;14206;50.202;10.948;2023-08-01T07:27:48;1.88;;;1.50;;
26540;SDS011;14206;50.202;10.948;2023-08-01T07:30:16;2.92;;;1.83;;
26540;SDS011;14206;50.202;10.948;2023-08-01T07:32:43;2.03;;;1.60;;
26540;SDS011;14206;50.202;10.948;2023-08-01T07:35:10;3.70;;;1.70;;
26540;SDS011;14206;50.202;10.948;2023-08-01T07:37:37;2.35;;;1.80;;
26540;SDS011;14206;50.202;10.948;2023-08-01T07:40:07;1.67;;;1.40;;
26540;SDS011;14206;50.202;10.948;2023-08-01T07:42:35;3.38;;;1.27;;
26540;SDS011;14206;50.202;10.948;2023-08-01T07:45:02;1.45;;;1.30;;
26540;SDS011;14206;50.202;10.948;2023-08-01T07:47:29;1.80;;;1.30;;
26540;SDS011;14206;50.202;10.948;2023-08-01T07:49:56;1.25;;;1.15;;
26540;SDS011;14206;50.202;10.948;2023-08-01T07:52:23;1.30;;;1.17;;
26540;SDS011;14206;50.202;10.948;2023-08-01T07:54:50;1.55;;;1.10;;
26540;SDS011;14206;50.202;10.948;2023-08-01T07:57:18;0.80;;;0.80;;
26540;SDS011;14206;50.202;10.948;2023-08-01T07:59:45;1.20;;;1.08;;
26540;SDS011;14206;50.202;10.948;2023-08-01T08:02:12;3.58;;;1.70;;
26540;SDS011;14206;50.202;10.948;2023-08-01T08:04:39;1.50;;;1.40;;
26540;SDS011;14206;50.202;10.948;2023-08-01T08:07:06;2.20;;;1.50;;
26540;SDS011;14206;50.202;10.948;2023-08-01T08:09:33;2.83;;;1.80;;
26540;SDS011;14206;50.202;10.948;2023-08-01T08:12:00;2.38;;;1.88;;
26540;SDS011;14206;50.202;10.948;2023-08-01T08:14:26;3.90;;;2.17;;
26540;SDS011;14206;50.202;10.948;2023-08-01T08:16:53;2.80;;;2.10;;
26540;SDS011;14206;50.202;10.948;2023-08-01T08:19:20;2.97;;;1.80;;
26540;SDS011;14206;50.202;10.948;2023-08-01T08:21:50;2.53;;;1.88;;
26540;SDS011;14206;50.202;10.948;2023-08-01T08:24:17;3.08;;;1.92;;
26540;SDS011;14206;50.202;10.948;2023-08-01T08:26:44;3.03;;;2.20;;
26540;SDS011;14206;50.202;10.948;2023-08-01T08:29:11;3.50;;;2.03;;
26540;SDS011;14206;50.202;10.948;2023-08-01T08:31:38;3.20;;;2.35;;
26540;SDS011;14206;50.202;10.948;2023-08-01T08:34:05;2.10;;;1.75;;
26540;SDS011;14206;50.202;10.948;2023-08-01T08:36:32;4.10;;;2.00;;
26540;SDS011;14206;50.202;10.948;2023-08-01T08:38:59;2.70;;;2.35;;
26540;SDS011;14206;50.202;10.948;2023-08-01T08:41:27;2.88;;;1.98;;
26540;SDS011;14206;50.202;10.948;2023-08-01T08:43:56;2.42;;;1.85;;
26540;SDS011;14206;50.202;10.948;2023-08-01T08:46:27;3.25;;;1.75;;
26540;SDS011;14206;50.202;10.948;2023-08-01T08:48:56;3.00;;;2.00;;
26540;SDS011;14206;50.202;10.948;2023-08-01T08:51:24;3.60;;;1.88;;
26540;SDS011;14206;50.202;10.948;2023-08-01T08:53:53;2.67;;;2.00;;
26540;SDS011;14206;50.202;10.948;2023-08-01T08:56:24;2.28;;;1.88;;
26540;SDS011;14206;50.202;10.948;2023-08-01T08:58:53;1.88;;;1.65;;
26540;SDS011;14206;50.202;10.948;2023-08-01T09:01:20;3.50;;;2.17;;
26540;SDS011;14206;50.202;10.948;2023-08-01T09:03:47;2.17;;;1.65;;
26540;SDS011;14206;50.202;10.948;2023-08-01T09:06:15;3.70;;;1.50;;
26540;SDS011;14206;50.202;10.948;2023-08-01T09:08:49;2.25;;;1.60;;
26540;SDS011;14206;50.202;10.948;2023-08-01T09:11:18;2.05;;;1.70;;
26540;SDS011;14206;50.202;10.948;2023-08-01T09:13:45;1.70;;;1.52;;
26540;SDS011;14206;50.202;10.948;2023-08-01T09:16:14;1.58;;;1.48;;
26540;SDS011;14206;50.202;10.948;2023-08-01T09:21:19;1.80;;;1.50;;
26540;SDS011;14206;50.202;10.948;2023-08-01T09:23:47;1.65;;;1.15;;
26540;SDS011;14206;50.202;10.948;2023-08-01T09:26:15;1.70;;;1.45;;
26540;SDS011;14206;50.202;10.948;2023-08-01T09:28:43;3.60;;;1.42;;
26540;SDS011;14206;50.202;10.948;2023-08-01T09:31:10;2.42;;;1.40;;
26540;SDS011;14206;50.202;10.948;2023-08-01T09:33:38;2.70;;;1.77;;
26540;SDS011;14206;50.202;10.948;2023-08-01T09:36:08;2.65;;;1.30;;
26540;SDS011;14206;50.202;10.948;2023-08-01T09:38:37;2.38;;;1.45;;
26540;SDS011;14206;50.202;10.948;2023-08-01T09:41:04;1.45;;;1.10;;
26540;SDS011;14206;50.202;10.948;2023-08-01T09:43:35;2.15;;;1.10;;
26540;SDS011;14206;50.202;10.948;2023-08-01T09:46:03;2.47;;;1.50;;
26540;SDS011;14206;50.202;10.948;2023-08-01T09:48:32;1.15;;;0.95;;
26540;SDS011;14206;50.202;10.948;2023-08-01T09:53:46;0.70;;;0.60;;
26540;SDS011;14206;50.202;10.948;2023-08-01T09:56:20;0.88;;;0.80;;
26540;SDS011;14206;50.202;10.948;2023-08-01T09:58:48;1.60;;;0.80;;
26540;SDS011;14206;50.202;10.948;2023-08-01T10:01:17;1.05;;;0.75;;
26540;SDS011;14206;50.202;10.948;2023-08-01T10:03:48;1.05;;;0.75;;
26540;SDS011;14206;50.202;10.948;2023-08-01T10:08:47;0.63;;;0.63;;
26540;SDS011;14206;50.202;10.948;2023-08-01T10:11:16;1.10;;;0.88;;
26540;SDS011;14206;50.202;10.948;2023-08-01T10:13:44;1.33;;;0.80;;
26540;SDS011;14206;50.202;10.948;2023-08-01T10:16:12;0.82;;;0.75;;
26540;SDS011;14206;50.202;10.948;2023-08-01T10:18:41;0.80;;;0.75;;
26540;SDS011;14206;50.202;10.948;2023-08-01T10:21:10;1.05;;;0.70;;
26540;SDS011;14206;50.202;10.948;2023-08-01T10:23:40;1.00;;;0.85;;
26540;SDS011;14206;50.202;10.948;2023-08-01T10:26:08;1.17;;;0.80;;
26540;SDS011;14206;50.202;10.948;2023-08-01T10:28:38;1.30;;;1.00;;
26540;SDS011;14206;50.202;10.948;2023-08-01T10:33:38;1.80;;;0.90;;
26540;SDS011;14206;50.202;10.948;2023-08-01T10:36:21;0.80;;;0.70;;
26540;SDS011;14206;50.202;10.948;2023-08-01T10:38:54;1.63;;;0.80;;
26540;SDS011;14206;50.202;10.948;2023-08-01T10:41:30;1.10;;;1.00;;
26540;SDS011;14206;50.202;10.948;2023-08-01T10:44:07;1.55;;;0.77;;
26540;SDS011;14206;50.202;10.948;2023-08-01T10:46:53;1.60;;;1.10;;
26540;SDS011;14206;50.202;10.948;2023-08-01T10:49:41;2.03;;;0.82;;
26540;SDS011;14206;50.202;10.948;2023-08-01T10:52:19;0.98;;;0.90;;
26540;SDS011;14206;50.202;10.948;2023-08-01T10:54:59;1.20;;;0.98;;
26540;SDS011;14206;50.202;10.948;2023-08-01T10:57:28;0.88;;;0.88;;
26540;SDS011;14206;50.202;10.948;2023-08-01T10:59:56;0.90;;;0.90;;
26540;SDS011;14206;50.202;10.948;2023-08-01T11:02:25;1.42;;;1.27;;
26540;SDS011;14206;50.202;10.948;2023-08-01T11:05:03;0.70;;;0.70;;
26540;SDS011;14206;50.202;10.948;2023-08-01T11:07:33;1.75;;;1.05;;
26540;SDS011;14206;50.202;10.948;2023-08-01T11:12:35;0.90;;;0.85;;
26540;SDS011;14206;50.202;10.948;2023-08-01T11:15:13;1.35;;;1.23;;
26540;SDS011;14206;50.202;10.948;2023-08-01T11:17:45;1.95;;;1.10;;
26540;SDS011;14206;50.202;10.948;2023-08-01T11:20:14;1.45;;;1.20;;
26540;SDS011;14206;50.202;10.948;2023-08-01T11:22:55;1.17;;;1.08;;
26540;SDS011;14206;50.202;10.948;2023-08-01T11:25:37;2.25;;;1.10;;
26540;SDS011;14206;50.202;10.948;2023-08-01T11:28:10;1.05;;;0.82;;
26540;SDS011;14206;50.202;10.948;2023-08-01T11:30:38;1.80;;;1.10;;
26540;SDS011;14206;50.202;10.948;2023-08-01T11:35:52;1.60;;;1.25;;
26540;SDS011;14206;50.202;10.948;2023-08-01T11:38:23;1.08;;;0.98;;
26540;SDS011;14206;50.202;10.948;2023-08-01T11:40:51;1.20;;;1.10;;
26540;SDS011;14206;50.202;10.948;2023-08-01T11:43:19;1.55;;;0.90;;
26540;SDS011;14206;50.202;10.948;2023-08-01T11:45:52;1.42;;;1.15;;
26540;SDS011;14206;50.202;10.948;2023-08-01T11:48:22;1.15;;;1.05;;
26540;SDS011;14206;50.202;10.948;2023-08-01T11:50:55;1.17;;;1.08;;
26540;SDS011;14206;50.202;10.948;2023-08-01T11:53:27;2.00;;;1.30;;
26540;SDS011;14206;50.202;10.948;2023-08-01T11:55:54;1.48;;;1.10;;
26540;SDS011;14206;50.202;10.948;2023-08-01T11:58:30;1.90;;;1.23;;
26540;SDS011;14206;50.202;10.948;2023-08-01T12:01:10;2.08;;;1.20;;
26540;SDS011;14206;50.202;10.948;2023-08-01T12:06:12;1.52;;;1.10;;
26540;SDS011;14206;50.202;10.948;2023-08-01T12:08:44;2.05;;;1.40;;
26540;SDS011;14206;50.202;10.948;2023-08-01T12:11:23;1.20;;;1.10;;
26540;SDS011;14206;50.202;10.948;2023-08-01T12:14:04;1.10;;;1.00;;
26540;SDS011;14206;50.202;10.948;2023-08-01T12:16:40;1.23;;;1.10;;
26540;SDS011;14206;50.202;10.948;2023-08-01T12:19:16;1.02;;;0.93;;
26540;SDS011;14206;50.202;10.948;2023-08-01T12:21:44;2.55;;;0.90;;
26540;SDS011;14206;50.202;10.948;2023-08-01T12:24:11;1.85;;;1.10;;
26540;SDS011;14206;50.202;10.948;2023-08-01T12:26:38;1.00;;;0.90;;
26540;SDS011;14206;50.202;10.948;2023-08-01T12:29:05;1.40;;;1.00;;
26540;SDS011;14206;50.202;10.948;2023-08-01T12:31:32;0.80;;;0.80;;
26540;SDS011;14206;50.202;10.948;2023-08-01T12:33:59;1.35;;;1.00;;
26540;SDS011;14206;50.202;10.948;2023-08-01T12:36:26;3.33;;;1.10;;
26540;SDS011;14206;50.202;10.948;2023-08-01T12:38:54;1.15;;;0.90;;
26540;SDS011;14206;50.202;10.948;2023-08-01T12:41:21;1.55;;;1.00;;
26540;SDS011;14206;50.202;10.948;2023-08-01T12:43:47;2.50;;;1.20;;
26540;SDS011;14206;50.202;10.948;2023-08-01T12:46:15;1.30;;;0.90;;
26540;SDS011;14206;50.202;10.948;2023-08-01T12:48:42;1.15;;;1.00;;
26540;SDS011;14206;50.202;10.948;2023-08-01T12:51:10;0.80;;;0.80;;
26540;SDS011;14206;50.202;10.948;2023-08-01T12:53:37;1.10;;;1.00;;
26540;SDS011;14206;50.202;10.948;2023-08-01T12:56:09;1.08;;;1.00;;
26540;SDS011;14206;50.202;10.948;2023-08-01T12:58:36;1.27;;;1.02;;
26540;SDS011;14206;50.202;10.948;2023-08-01T13:01:03;1.00;;;0.90;;
26540;SDS011;14206;50.202;10.948;2023-08-01T13:03:30;1.55;;;1.10;;
26540;SDS011;14206;50.202;10.948;2023-08-01T13:05:57;1.20;;;1.10;;
26540;SDS011;14206;50.202;10.948;2023-08-01T13:08:25;1.20;;;0.90;;
26540;SDS011;14206;50.202;10.948;2023-08-01T13:10:52;0.73;;;0.70;;
26540;SDS011;14206;50.202;10.948;2023-08-01T13:13:19;0.90;;;0.90;;
26540;SDS011;14206;50.202;10.948;2023-08-01T13:15:45;1.10;;;1.00;;
26540;SDS011;14206;50.202;10.948;2023-08-01T13:18:13;0.80;;;0.80;;
26540;SDS011;14206;50.202;10.948;2023-08-01T13:20:40;1.52;;;0.93;;
26540;SDS011;14206;50.202;10.948;2023-08-01T13:23:07;1.88;;;1.17;;
26540;SDS011;14206;50.202;10.948;2023-08-01T13:25:34;1.52;;;1.10;;
26540;SDS011;14206;50.202;10.948;2023-08-01T13:28:02;1.27;;;0.90;;
26540;SDS011;14206;50.202;10.948;2023-08-01T13:30:29;0.90;;;0.70;;
26540;SDS011;14206;50.202;10.948;2023-08-01T13:32:56;0.80;;;0.70;;
26540;SDS011;14206;50.202;10.948;2023-08-01T13:35:23;2.03;;;0.70;;
26540;SDS011;14206;50.202;10.948;2023-08-01T13:37:49;2.25;;;1.00;;
26540;SDS011;14206;50.202;10.948;2023-08-01T13:40:16;1.40;;;0.70;;
26540;SDS011;14206;50.202;10.948;2023-08-01T13:42:43;0.88;;;0.85;;
26540;SDS011;14206;50.202;10.948;2023-08-01T13:45:10;1.10;;;1.00;;
26540;SDS011;14206;50.202;10.948;2023-08-01T13:47:37;1.85;;;0.85;;
26540;SDS011;14206;50.202;10.948;2023-08-01T13:50:04;1.15;;;0.85;;
26540;SDS011;14206;50.202;10.948;2023-08-01T13:52:31;0.98;;;0.88;;
26540;SDS011;14206;50.202;10.948;2023-08-01T13:54:58;1.20;;;0.90;;
26540;SDS011;14206;50.202;10.948;2023-08-01T13:57:25;1.15;;;1.02;;
26540;SDS011;14206;50.202;10.948;2023-08-01T13:59:55;1.10;;;0.82;;
26540;SDS011;14206;50.202;10.948;2023-08-01T14:02:39;1.20;;;0.90;;
26540;SDS011;14206;50.202;10.948;2023-08-01T14:05:07;1.45;;;1.05;;
26540;SDS011;14206;50.202;10.948;2023-08-01T14:07:48;2.67;;;1.20;;
26540;SDS011;14206;50.202;10.948;2023-08-01T14:10:15;1.65;;;1.30;;
26540;SDS011;14206;50.202;10.948;2023-08-01T14:12:42;1.20;;;1.10;;
26540;SDS011;14206;50.202;10.948;2023-08-01T14:15:09;2.42;;;1.20;;
26540;SDS011;14206;50.202;10.948;2023-08-01T14:17:38;1.45;;;1.20;;
26540;SDS011;14206;50.202;10.948;2023-08-01T14:20:06;1.38;;;1.10;;
26540;SDS011;14206;50.202;10.948;2023-08-01T14:22:34;1.23;;;1.10;;
26540;SDS011;14206;50.202;10.948;2023-08-01T14:25:01;1.60;;;1.00;;
26540;SDS011;14206;50.202;10.948;2023-08-01T14:27:28;2.00;;;1.15;;
26540;SDS011;14206;50.202;10.948;2023-08-01T14:29:56;1.40;;;1.30;;
26540;SDS011;14206;50.202;10.948;2023-08-01T14:32:23;2.50;;;1.08;;
26540;SDS011;14206;50.202;10.948;2023-08-01T14:34:51;1.60;;;1.42;;
26540;SDS011;14206;50.202;10.948;2023-08-01T14:37:19;2.25;;;1.20;;
26540;SDS011;14206;50.202;10.948;2023-08-01T14:39:50;1.50;;;1.20;;
26540;SDS011;14206;50.202;10.948;2023-08-01T14:42:17;1.40;;;1.20;;
26540;SDS011;14206;50.202;10.948;2023-08-01T14:44:45;1.55;;;1.33;;
26540;SDS011;14206;50.202;10.948;2023-08-01T14:47:17;1.40;;;1.30;;
26540;SDS011;14206;50.202;10.948;2023-08-01T14:49:44;1.17;;;1.08;;
26540;SDS011;14206;50.202;10.948;2023-08-01T14:52:11;1.27;;;1.10;;
26540;SDS011;14206;50.202;10.948;2023-08-01T14:54:38;1.48;;;1.25;;
26540;SDS011;14206;50.202;10.948;2023-08-01T14:57:07;1.65;;;1.38;;